sensor_id;sensor_type;location;lat;lon;timestamp;P1;durP1;ratioP1;P2;durP2;ratioP2
47966;SDS011;33733;52.456;13.620;2022-08-11T00:01:56;5.78;;;1.88;;
47966;SDS011;33733;52.456;13.620;2022-08-11T00:04:25;4.95;;;1.10;;
47966;SDS011;33733;52.456;13.620;2022-08-11T00:06:52;8.77;;;2.47;;
47966;SDS011;33733;52.456;13.620;2022-08-11T00:09:21;5.15;;;1.27;;
47966;SDS011;33733;52.456;13.620;2022-08-11T00:11:53;4.88;;;1.17;;
47966;SDS011;33733;52.456;13.620;2022-08-11T00:14:31;5.35;;;1.52;;
47966;SDS011;33733;52.456;13.620;2022-08-11T00:17:04;4.88;;;1.98;;
47966;SDS011;33733;52.456;13.620;2022-08-11T00:19:33;5.10;;;1.88;;
47966;SDS011;33733;52.456;13.620;2022-08-11T00:24:48;4.72;;;1.73;;
47966;SDS011;33733;52.456;13.620;2022-08-11T00:27:40;5.90;;;1.80;;
47966;SDS011;33733;52.456;13.620;2022-08-11T00:30:08;6.80;;;1.00;;
47966;SDS011;33733;52.456;13.620;2022-08-11T00:32:37;6.85;;;1.25;;
47966;SDS011;33733;52.456;13.620;2022-08-11T00:35:06;5.95;;;0.98;;
47966;SDS011;33733;52.456;13.620;2022-08-11T00:37:54;4.13;;;1.00;;
47966;SDS011;33733;52.456;13.620;2022-08-11T00:40:22;5.55;;;1.05;;
47966;SDS011;33733;52.456;13.620;2022-08-11T00:43:00;5.15;;;0.93;;
47966;SDS011;33733;52.456;13.620;2022-08-11T00:45:53;5.43;;;1.30;;
47966;SDS011;33733;52.456;13.620;2022-08-11T00:55:17;6.78;;;1.27;;
47966;SDS011;33733;52.456;13.620;2022-08-11T00:57:49;3.92;;;0.85;;
47966;SDS011;33733;52.456;13.620;2022-08-11T01:00:23;3.45;;;0.90;;
47966;SDS011;33733;52.456;13.620;2022-08-11T01:08:28;5.30;;;1.30;;
47966;SDS011;33733;52.456;13.620;2022-08-11T01:32:01;5.32;;;2.15;;
47966;SDS011;33733;52.456;13.620;2022-08-11T01:51:59;5.80;;;1.55;;
47966;SDS011;33733;52.456;13.620;2022-08-11T01:54:30;5.45;;;1.13;;
47966;SDS011;33733;52.456;13.620;2022-08-11T01:57:18;6.57;;;1.50;;
47966;SDS011;33733;52.456;13.620;2022-08-11T01:59:49;4.53;;;1.17;;
47966;SDS011;33733;52.456;13.620;2022-08-11T02:05:16;4.35;;;1.65;;
47966;SDS011;33733;52.456;13.620;2022-08-11T02:10:42;4.90;;;1.50;;
47966;SDS011;33733;52.456;13.620;2022-08-11T02:13:36;4.18;;;1.15;;
47966;SDS011;33733;52.456;13.620;2022-08-11T02:21:59;5.03;;;2.08;;
47966;SDS011;33733;52.456;13.620;2022-08-11T02:25:07;6.13;;;1.65;;
47966;SDS011;33733;52.456;13.620;2022-08-11T02:27:51;4.82;;;1.27;;
47966;SDS011;33733;52.456;13.620;2022-08-11T02:30:37;4.38;;;1.52;;
47966;SDS011;33733;52.456;13.620;2022-08-11T02:33:13;6.93;;;1.00;;
47966;SDS011;33733;52.456;13.620;2022-08-11T02:35:54;4.07;;;1.27;;
47966;SDS011;33733;52.456;13.620;2022-08-11T02:38:28;4.65;;;1.17;;
47966;SDS011;33733;52.456;13.620;2022-08-11T02:43:31;6.35;;;1.40;;
47966;SDS011;33733;52.456;13.620;2022-08-11T02:46:15;4.50;;;1.73;;
47966;SDS011;33733;52.456;13.620;2022-08-11T02:52:13;6.75;;;2.33;;
47966;SDS011;33733;52.456;13.620;2022-08-11T03:00:55;4.78;;;1.13;;
47966;SDS011;33733;52.456;13.620;2022-08-11T03:03:29;5.72;;;2.08;;
47966;SDS011;33733;52.456;13.620;2022-08-11T03:09:18;4.38;;;1.70;;
47966;SDS011;33733;52.456;13.620;2022-08-11T03:15:06;4.15;;;1.50;;
47966;SDS011;33733;52.456;13.620;2022-08-11T03:20:44;4.85;;;2.35;;
47966;SDS011;33733;52.456;13.620;2022-08-11T03:23:36;4.18;;;1.95;;
47966;SDS011;33733;52.456;13.620;2022-08-11T03:29:10;5.18;;;1.20;;
47966;SDS011;33733;52.456;13.620;2022-08-11T03:34:22;4.97;;;1.48;;
47966;SDS011;33733;52.456;13.620;2022-08-11T03:42:32;5.38;;;2.00;;
47966;SDS011;33733;52.456;13.620;2022-08-11T03:45:33;5.65;;;1.20;;
47966;SDS011;33733;52.456;13.620;2022-08-11T03:48:08;6.78;;;2.00;;
47966;SDS011;33733;52.456;13.620;2022-08-11T04:11:13;5.65;;;1.42;;
47966;SDS011;33733;52.456;13.620;2022-08-11T04:13:56;6.75;;;1.60;;
47966;SDS011;33733;52.456;13.620;2022-08-11T04:24:53;6.65;;;1.55;;
47966;SDS011;33733;52.456;13.620;2022-08-11T04:30:52;6.43;;;2.17;;
47966;SDS011;33733;52.456;13.620;2022-08-11T04:38:47;8.60;;;2.35;;
47966;SDS011;33733;52.456;13.620;2022-08-11T04:44:50;7.60;;;1.85;;
47966;SDS011;33733;52.456;13.620;2022-08-11T04:53:41;6.32;;;1.83;;
47966;SDS011;33733;52.456;13.620;2022-08-11T04:56:34;6.82;;;2.65;;
47966;SDS011;33733;52.456;13.620;2022-08-11T04:59:35;7.75;;;2.13;;
47966;SDS011;33733;52.456;13.620;2022-08-11T05:16:49;8.63;;;1.85;;
47966;SDS011;33733;52.456;13.620;2022-08-11T05:19:37;6.55;;;2.67;;
47966;SDS011;33733;52.456;13.620;2022-08-11T05:22:25;6.28;;;1.88;;
47966;SDS011;33733;52.456;13.620;2022-08-11T05:25:16;7.63;;;3.25;;
47966;SDS011;33733;52.456;13.620;2022-08-11T05:28:31;7.68;;;3.13;;
47966;SDS011;33733;52.456;13.620;2022-08-11T05:31:19;7.10;;;3.13;;
47966;SDS011;33733;52.456;13.620;2022-08-11T05:34:11;7.65;;;3.08;;
47966;SDS011;33733;52.456;13.620;2022-08-11T05:37:06;7.63;;;2.25;;
47966;SDS011;33733;52.456;13.620;2022-08-11T05:39:54;7.28;;;2.33;;
47966;SDS011;33733;52.456;13.620;2022-08-11T05:42:42;7.85;;;2.28;;
47966;SDS011;33733;52.456;13.620;2022-08-11T05:45:33;8.68;;;2.80;;
47966;SDS011;33733;52.456;13.620;2022-08-11T05:48:34;7.20;;;3.40;;
47966;SDS011;33733;52.456;13.620;2022-08-11T05:51:20;7.03;;;2.50;;
47966;SDS011;33733;52.456;13.620;2022-08-11T05:54:20;9.57;;;3.55;;
47966;SDS011;33733;52.456;13.620;2022-08-11T05:57:07;7.97;;;3.15;;
47966;SDS011;33733;52.456;13.620;2022-08-11T05:59:34;8.43;;;3.92;;
47966;SDS011;33733;52.456;13.620;2022-08-11T06:02:01;12.88;;;3.97;;
47966;SDS011;33733;52.456;13.620;2022-08-11T06:04:29;9.63;;;2.72;;
47966;SDS011;33733;52.456;13.620;2022-08-11T06:06:57;7.72;;;3.83;;
47966;SDS011;33733;52.456;13.620;2022-08-11T06:12:05;7.68;;;4.20;;
47966;SDS011;33733;52.456;13.620;2022-08-11T06:14:35;9.40;;;3.95;;
47966;SDS011;33733;52.456;13.620;2022-08-11T06:17:08;9.38;;;4.35;;
47966;SDS011;33733;52.456;13.620;2022-08-11T06:19:37;8.07;;;4.20;;
47966;SDS011;33733;52.456;13.620;2022-08-11T06:22:07;10.05;;;3.80;;
47966;SDS011;33733;52.456;13.620;2022-08-11T06:24:40;6.97;;;3.55;;
47966;SDS011;33733;52.456;13.620;2022-08-11T06:27:07;7.50;;;2.85;;
47966;SDS011;33733;52.456;13.620;2022-08-11T06:29:45;9.00;;;2.85;;
47966;SDS011;33733;52.456;13.620;2022-08-11T06:32:25;13.32;;;3.03;;
47966;SDS011;33733;52.456;13.620;2022-08-11T06:40:52;8.02;;;2.80;;
47966;SDS011;33733;52.456;13.620;2022-08-11T06:46:32;8.93;;;3.88;;
47966;SDS011;33733;52.456;13.620;2022-08-11T06:49:08;7.63;;;4.20;;
47966;SDS011;33733;52.456;13.620;2022-08-11T06:52:06;8.07;;;3.92;;
47966;SDS011;33733;52.456;13.620;2022-08-11T06:54:55;9.32;;;2.75;;
47966;SDS011;33733;52.456;13.620;2022-08-11T06:57:34;8.80;;;3.45;;
47966;SDS011;33733;52.456;13.620;2022-08-11T07:00:21;7.60;;;2.65;;
47966;SDS011;33733;52.456;13.620;2022-08-11T07:05:44;6.55;;;3.05;;
47966;SDS011;33733;52.456;13.620;2022-08-11T07:08:32;6.78;;;3.42;;
47966;SDS011;33733;52.456;13.620;2022-08-11T07:11:40;8.48;;;2.55;;
47966;SDS011;33733;52.456;13.620;2022-08-11T07:14:49;8.02;;;4.03;;
47966;SDS011;33733;52.456;13.620;2022-08-11T07:17:49;5.10;;;2.15;;
47966;SDS011;33733;52.456;13.620;2022-08-11T07:20:37;9.35;;;4.38;;
47966;SDS011;33733;52.456;13.620;2022-08-11T07:23:27;8.70;;;3.78;;
47966;SDS011;33733;52.456;13.620;2022-08-11T07:26:15;7.68;;;2.38;;
47966;SDS011;33733;52.456;13.620;2022-08-11T07:29:02;8.65;;;3.75;;
47966;SDS011;33733;52.456;13.620;2022-08-11T07:31:33;7.57;;;2.70;;
47966;SDS011;33733;52.456;13.620;2022-08-11T07:36:59;6.90;;;3.13;;
47966;SDS011;33733;52.456;13.620;2022-08-11T07:39:31;7.90;;;3.88;;
47966;SDS011;33733;52.456;13.620;2022-08-11T07:41:59;7.85;;;2.13;;
47966;SDS011;33733;52.456;13.620;2022-08-11T07:44:30;8.60;;;3.95;;
47966;SDS011;33733;52.456;13.620;2022-08-11T07:47:17;7.10;;;2.45;;
47966;SDS011;33733;52.456;13.620;2022-08-11T07:50:03;10.07;;;3.67;;
47966;SDS011;33733;52.456;13.620;2022-08-11T07:52:48;7.97;;;2.20;;
47966;SDS011;33733;52.456;13.620;2022-08-11T07:55:19;6.18;;;2.00;;
47966;SDS011;33733;52.456;13.620;2022-08-11T07:58:07;9.27;;;1.90;;
47966;SDS011;33733;52.456;13.620;2022-08-11T08:01:00;6.25;;;1.75;;
47966;SDS011;33733;52.456;13.620;2022-08-11T08:03:48;7.50;;;2.72;;
47966;SDS011;33733;52.456;13.620;2022-08-11T08:06:33;9.10;;;3.20;;
47966;SDS011;33733;52.456;13.620;2022-08-11T08:09:20;8.50;;;3.17;;
47966;SDS011;33733;52.456;13.620;2022-08-11T08:12:06;7.15;;;3.00;;
47966;SDS011;33733;52.456;13.620;2022-08-11T08:14:52;7.15;;;3.22;;
47966;SDS011;33733;52.456;13.620;2022-08-11T08:17:39;6.50;;;3.28;;
47966;SDS011;33733;52.456;13.620;2022-08-11T08:20:46;6.63;;;1.92;;
47966;SDS011;33733;52.456;13.620;2022-08-11T08:23:15;8.60;;;3.58;;
47966;SDS011;33733;52.456;13.620;2022-08-11T08:25:43;7.15;;;2.85;;
47966;SDS011;33733;52.456;13.620;2022-08-11T08:28:14;6.90;;;3.30;;
47966;SDS011;33733;52.456;13.620;2022-08-11T08:30:42;6.80;;;1.73;;
47966;SDS011;33733;52.456;13.620;2022-08-11T08:33:22;6.63;;;1.90;;
47966;SDS011;33733;52.456;13.620;2022-08-11T08:35:54;5.88;;;2.03;;
47966;SDS011;33733;52.456;13.620;2022-08-11T08:38:41;5.30;;;1.52;;
47966;SDS011;33733;52.456;13.620;2022-08-11T08:41:09;7.97;;;2.35;;
47966;SDS011;33733;52.456;13.620;2022-08-11T08:43:42;7.25;;;2.92;;
47966;SDS011;33733;52.456;13.620;2022-08-11T08:46:14;8.20;;;1.80;;
47966;SDS011;33733;52.456;13.620;2022-08-11T08:48:44;4.82;;;1.40;;
47966;SDS011;33733;52.456;13.620;2022-08-11T08:51:12;6.85;;;2.65;;
47966;SDS011;33733;52.456;13.620;2022-08-11T08:54:22;8.82;;;3.00;;
47966;SDS011;33733;52.456;13.620;2022-08-11T08:56:59;6.03;;;2.78;;
47966;SDS011;33733;52.456;13.620;2022-08-11T08:59:28;5.75;;;2.17;;
47966;SDS011;33733;52.456;13.620;2022-08-11T09:02:14;7.50;;;2.45;;
47966;SDS011;33733;52.456;13.620;2022-08-11T09:07:11;5.03;;;2.20;;
47966;SDS011;33733;52.456;13.620;2022-08-11T09:09:42;5.45;;;1.42;;
47966;SDS011;33733;52.456;13.620;2022-08-11T09:12:10;8.00;;;2.47;;
47966;SDS011;33733;52.456;13.620;2022-08-11T09:14:38;6.65;;;2.58;;
47966;SDS011;33733;52.456;13.620;2022-08-11T09:17:26;8.43;;;2.67;;
47966;SDS011;33733;52.456;13.620;2022-08-11T09:19:54;6.55;;;2.67;;
47966;SDS011;33733;52.456;13.620;2022-08-11T09:22:27;5.28;;;1.73;;
47966;SDS011;33733;52.456;13.620;2022-08-11T09:25:34;4.65;;;1.48;;
47966;SDS011;33733;52.456;13.620;2022-08-11T09:28:20;4.78;;;1.38;;
47966;SDS011;33733;52.456;13.620;2022-08-11T09:30:48;6.97;;;2.20;;
47966;SDS011;33733;52.456;13.620;2022-08-11T09:33:21;7.97;;;1.63;;
47966;SDS011;33733;52.456;13.620;2022-08-11T09:35:49;4.63;;;1.50;;
47966;SDS011;33733;52.456;13.620;2022-08-11T09:38:17;4.80;;;1.65;;
47966;SDS011;33733;52.456;13.620;2022-08-11T09:41:05;5.53;;;2.30;;
47966;SDS011;33733;52.456;13.620;2022-08-11T09:43:39;5.75;;;2.67;;
47966;SDS011;33733;52.456;13.620;2022-08-11T09:46:30;5.22;;;1.50;;
47966;SDS011;33733;52.456;13.620;2022-08-11T09:48:59;4.65;;;1.67;;
47966;SDS011;33733;52.456;13.620;2022-08-11T09:51:28;4.15;;;1.38;;
47966;SDS011;33733;52.456;13.620;2022-08-11T09:53:58;6.10;;;2.25;;
47966;SDS011;33733;52.456;13.620;2022-08-11T09:56:29;6.07;;;3.22;;
47966;SDS011;33733;52.456;13.620;2022-08-11T09:59:16;6.13;;;1.40;;
47966;SDS011;33733;52.456;13.620;2022-08-11T10:01:45;5.70;;;2.45;;
47966;SDS011;33733;52.456;13.620;2022-08-11T10:04:16;5.13;;;1.20;;
47966;SDS011;33733;52.456;13.620;2022-08-11T10:06:44;5.40;;;1.20;;
47966;SDS011;33733;52.456;13.620;2022-08-11T10:12:30;5.25;;;1.95;;
47966;SDS011;33733;52.456;13.620;2022-08-11T10:15:01;6.15;;;2.45;;
47966;SDS011;33733;52.456;13.620;2022-08-11T10:17:51;5.05;;;2.85;;
47966;SDS011;33733;52.456;13.620;2022-08-11T10:20:38;6.32;;;1.92;;
47966;SDS011;33733;52.456;13.620;2022-08-11T10:23:05;6.30;;;2.60;;
47966;SDS011;33733;52.456;13.620;2022-08-11T10:25:52;6.60;;;2.75;;
47966;SDS011;33733;52.456;13.620;2022-08-11T10:28:38;6.95;;;1.60;;
47966;SDS011;33733;52.456;13.620;2022-08-11T10:31:25;6.68;;;1.30;;
47966;SDS011;33733;52.456;13.620;2022-08-11T10:37:20;5.85;;;1.35;;
47966;SDS011;33733;52.456;13.620;2022-08-11T10:40:12;4.75;;;1.52;;
47966;SDS011;33733;52.456;13.620;2022-08-11T10:42:41;6.88;;;1.75;;
47966;SDS011;33733;52.456;13.620;2022-08-11T10:45:28;7.18;;;1.33;;
47966;SDS011;33733;52.456;13.620;2022-08-11T10:50:44;8.55;;;3.35;;
47966;SDS011;33733;52.456;13.620;2022-08-11T10:53:33;6.57;;;3.50;;
47966;SDS011;33733;52.456;13.620;2022-08-11T10:56:20;6.85;;;2.60;;
47966;SDS011;33733;52.456;13.620;2022-08-11T10:59:05;6.18;;;2.47;;
47966;SDS011;33733;52.456;13.620;2022-08-11T11:01:37;6.35;;;1.85;;
47966;SDS011;33733;52.456;13.620;2022-08-11T11:04:13;6.03;;;2.80;;
47966;SDS011;33733;52.456;13.620;2022-08-11T11:07:02;8.40;;;2.55;;
47966;SDS011;33733;52.456;13.620;2022-08-11T11:09:46;6.40;;;2.33;;
47966;SDS011;33733;52.456;13.620;2022-08-11T11:15:13;4.93;;;2.22;;
47966;SDS011;33733;52.456;13.620;2022-08-11T11:18:03;5.43;;;2.33;;
47966;SDS011;33733;52.456;13.620;2022-08-11T11:23:26;5.63;;;2.70;;
47966;SDS011;33733;52.456;13.620;2022-08-11T11:34:22;6.85;;;1.45;;
47966;SDS011;33733;52.456;13.620;2022-08-11T11:37:19;7.13;;;1.10;;
47966;SDS011;33733;52.456;13.620;2022-08-11T11:39:48;4.43;;;1.48;;
47966;SDS011;33733;52.456;13.620;2022-08-11T11:42:15;4.53;;;1.45;;
47966;SDS011;33733;52.456;13.620;2022-08-11T11:44:43;4.43;;;2.15;;
47966;SDS011;33733;52.456;13.620;2022-08-11T11:47:11;6.95;;;2.40;;
47966;SDS011;33733;52.456;13.620;2022-08-11T11:49:40;5.00;;;1.10;;
47966;SDS011;33733;52.456;13.620;2022-08-11T11:52:13;5.05;;;2.53;;
47966;SDS011;33733;52.456;13.620;2022-08-11T11:54:44;6.78;;;1.45;;
47966;SDS011;33733;52.456;13.620;2022-08-11T11:57:16;5.93;;;2.60;;
47966;SDS011;33733;52.456;13.620;2022-08-11T12:00:03;6.57;;;2.42;;
47966;SDS011;33733;52.456;13.620;2022-08-11T12:02:59;4.97;;;2.88;;
47966;SDS011;33733;52.456;13.620;2022-08-11T12:05:28;6.75;;;2.60;;
47966;SDS011;33733;52.456;13.620;2022-08-11T12:07:57;8.05;;;2.95;;
47966;SDS011;33733;52.456;13.620;2022-08-11T12:10:44;4.95;;;1.27;;
47966;SDS011;33733;52.456;13.620;2022-08-11T12:13:12;4.47;;;2.53;;
47966;SDS011;33733;52.456;13.620;2022-08-11T12:18:50;6.25;;;2.92;;
47966;SDS011;33733;52.456;13.620;2022-08-11T12:21:18;10.95;;;1.45;;
47966;SDS011;33733;52.456;13.620;2022-08-11T12:23:46;3.65;;;1.23;;
47966;SDS011;33733;52.456;13.620;2022-08-11T12:26:32;4.22;;;1.45;;
47966;SDS011;33733;52.456;13.620;2022-08-11T12:29:34;5.00;;;2.42;;
47966;SDS011;33733;52.456;13.620;2022-08-11T12:32:06;5.72;;;2.42;;
47966;SDS011;33733;52.456;13.620;2022-08-11T12:34:33;6.18;;;2.33;;
47966;SDS011;33733;52.456;13.620;2022-08-11T12:37:03;5.22;;;1.10;;
47966;SDS011;33733;52.456;13.620;2022-08-11T12:39:46;4.60;;;0.95;;
47966;SDS011;33733;52.456;13.620;2022-08-11T12:45:53;4.93;;;2.55;;
47966;SDS011;33733;52.456;13.620;2022-08-11T12:48:25;4.82;;;2.63;;
47966;SDS011;33733;52.456;13.620;2022-08-11T12:51:27;6.45;;;3.42;;
47966;SDS011;33733;52.456;13.620;2022-08-11T12:57:32;5.43;;;1.02;;
47966;SDS011;33733;52.456;13.620;2022-08-11T13:00:20;3.80;;;1.50;;
47966;SDS011;33733;52.456;13.620;2022-08-11T13:03:07;4.70;;;1.10;;
47966;SDS011;33733;52.456;13.620;2022-08-11T13:05:55;4.70;;;1.00;;
47966;SDS011;33733;52.456;13.620;2022-08-11T13:08:23;4.43;;;1.38;;
47966;SDS011;33733;52.456;13.620;2022-08-11T13:10:52;4.25;;;1.10;;
47966;SDS011;33733;52.456;13.620;2022-08-11T13:13:38;5.50;;;1.20;;
47966;SDS011;33733;52.456;13.620;2022-08-11T13:16:22;3.20;;;1.02;;
47966;SDS011;33733;52.456;13.620;2022-08-11T13:18:50;6.43;;;2.58;;
47966;SDS011;33733;52.456;13.620;2022-08-11T13:21:19;3.67;;;1.25;;
47966;SDS011;33733;52.456;13.620;2022-08-11T13:26:34;4.28;;;2.40;;
47966;SDS011;33733;52.456;13.620;2022-08-11T13:29:16;5.18;;;2.15;;
47966;SDS011;33733;52.456;13.620;2022-08-11T13:31:44;5.00;;;2.35;;
47966;SDS011;33733;52.456;13.620;2022-08-11T13:34:11;4.50;;;1.35;;
47966;SDS011;33733;52.456;13.620;2022-08-11T13:36:40;3.60;;;0.95;;
47966;SDS011;33733;52.456;13.620;2022-08-11T13:39:06;5.75;;;0.98;;
47966;SDS011;33733;52.456;13.620;2022-08-11T13:44:05;3.75;;;1.33;;
47966;SDS011;33733;52.456;13.620;2022-08-11T13:46:32;5.70;;;1.30;;
47966;SDS011;33733;52.456;13.620;2022-08-11T13:49:00;4.18;;;1.13;;
47966;SDS011;33733;52.456;13.620;2022-08-11T13:51:27;5.57;;;2.85;;
47966;SDS011;33733;52.456;13.620;2022-08-11T13:54:04;4.07;;;1.67;;
47966;SDS011;33733;52.456;13.620;2022-08-11T13:56:36;6.28;;;2.60;;
47966;SDS011;33733;52.456;13.620;2022-08-11T13:59:07;5.40;;;1.23;;
47966;SDS011;33733;52.456;13.620;2022-08-11T14:01:38;5.53;;;1.90;;
47966;SDS011;33733;52.456;13.620;2022-08-11T14:04:29;4.65;;;2.22;;
47966;SDS011;33733;52.456;13.620;2022-08-11T14:06:59;3.97;;;2.00;;
47966;SDS011;33733;52.456;13.620;2022-08-11T14:09:31;7.50;;;1.00;;
47966;SDS011;33733;52.456;13.620;2022-08-11T14:12:01;4.22;;;1.15;;
47966;SDS011;33733;52.456;13.620;2022-08-11T14:15:33;3.70;;;1.17;;
47966;SDS011;33733;52.456;13.620;2022-08-11T14:17:55;5.30;;;2.15;;
47966;SDS011;33733;52.456;13.620;2022-08-11T14:20:26;6.63;;;2.15;;
47966;SDS011;33733;52.456;13.620;2022-08-11T14:23:15;4.05;;;1.88;;
47966;SDS011;33733;52.456;13.620;2022-08-11T14:25:42;6.57;;;2.42;;
47966;SDS011;33733;52.456;13.620;2022-08-11T14:28:30;4.43;;;2.00;;
47966;SDS011;33733;52.456;13.620;2022-08-11T14:31:07;5.93;;;2.10;;
47966;SDS011;33733;52.456;13.620;2022-08-11T14:33:34;7.28;;;2.25;;
47966;SDS011;33733;52.456;13.620;2022-08-11T14:36:22;5.72;;;2.05;;
47966;SDS011;33733;52.456;13.620;2022-08-11T14:38:51;3.38;;;1.20;;
47966;SDS011;33733;52.456;13.620;2022-08-11T14:49:50;7.72;;;1.85;;
47966;SDS011;33733;52.456;13.620;2022-08-11T14:52:35;2.50;;;0.73;;
47966;SDS011;33733;52.456;13.620;2022-08-11T14:55:03;2.92;;;1.08;;
47966;SDS011;33733;52.456;13.620;2022-08-11T14:57:49;10.25;;;1.65;;
47966;SDS011;33733;52.456;13.620;2022-08-11T15:00:21;3.70;;;1.15;;
47966;SDS011;33733;52.456;13.620;2022-08-11T15:02:49;6.05;;;2.97;;
47966;SDS011;33733;52.456;13.620;2022-08-11T15:05:38;6.03;;;2.15;;
47966;SDS011;33733;52.456;13.620;2022-08-11T15:08:27;3.28;;;1.10;;
47966;SDS011;33733;52.456;13.620;2022-08-11T15:11:14;2.83;;;0.82;;
47966;SDS011;33733;52.456;13.620;2022-08-11T15:14:04;3.88;;;1.83;;
47966;SDS011;33733;52.456;13.620;2022-08-11T15:16:32;3.05;;;0.88;;
47966;SDS011;33733;52.456;13.620;2022-08-11T15:19:19;3.65;;;0.95;;
47966;SDS011;33733;52.456;13.620;2022-08-11T15:21:47;2.80;;;0.70;;
47966;SDS011;33733;52.456;13.620;2022-08-11T15:24:33;6.13;;;1.73;;
47966;SDS011;33733;52.456;13.620;2022-08-11T15:27:07;2.70;;;0.70;;
47966;SDS011;33733;52.456;13.620;2022-08-11T15:29:55;4.13;;;0.85;;
47966;SDS011;33733;52.456;13.620;2022-08-11T15:32:59;4.70;;;0.90;;
47966;SDS011;33733;52.456;13.620;2022-08-11T15:35:47;5.65;;;0.60;;
47966;SDS011;33733;52.456;13.620;2022-08-11T15:38:33;3.90;;;1.52;;
47966;SDS011;33733;52.456;13.620;2022-08-11T15:43:51;2.80;;;0.65;;
47966;SDS011;33733;52.456;13.620;2022-08-11T15:46:39;3.38;;;0.57;;
47966;SDS011;33733;52.456;13.620;2022-08-11T15:49:10;4.00;;;1.58;;
47966;SDS011;33733;52.456;13.620;2022-08-11T15:51:47;3.45;;;0.90;;
47966;SDS011;33733;52.456;13.620;2022-08-11T15:54:17;5.25;;;1.00;;
47966;SDS011;33733;52.456;13.620;2022-08-11T15:56:47;7.32;;;0.90;;
47966;SDS011;33733;52.456;13.620;2022-08-11T15:59:16;4.57;;;1.85;;
47966;SDS011;33733;52.456;13.620;2022-08-11T16:02:09;3.80;;;0.80;;
47966;SDS011;33733;52.456;13.620;2022-08-11T16:04:50;5.00;;;0.80;;
47966;SDS011;33733;52.456;13.620;2022-08-11T16:07:22;3.42;;;0.73;;
47966;SDS011;33733;52.456;13.620;2022-08-11T16:09:55;5.05;;;1.33;;
47966;SDS011;33733;52.456;13.620;2022-08-11T16:12:27;4.20;;;1.85;;
47966;SDS011;33733;52.456;13.620;2022-08-11T16:14:57;4.35;;;1.45;;
47966;SDS011;33733;52.456;13.620;2022-08-11T16:17:47;2.63;;;0.70;;
47966;SDS011;33733;52.456;13.620;2022-08-11T16:20:18;5.40;;;1.80;;
47966;SDS011;33733;52.456;13.620;2022-08-11T16:22:47;4.22;;;1.85;;
47966;SDS011;33733;52.456;13.620;2022-08-11T16:25:27;3.75;;;1.73;;
47966;SDS011;33733;52.456;13.620;2022-08-11T16:28:14;5.50;;;2.20;;
47966;SDS011;33733;52.456;13.620;2022-08-11T16:30:42;3.58;;;1.88;;
47966;SDS011;33733;52.456;13.620;2022-08-11T16:33:11;4.15;;;1.00;;
47966;SDS011;33733;52.456;13.620;2022-08-11T16:35:58;6.47;;;2.22;;
47966;SDS011;33733;52.456;13.620;2022-08-11T16:38:44;3.13;;;1.00;;
47966;SDS011;33733;52.456;13.620;2022-08-11T16:41:12;4.43;;;1.50;;
47966;SDS011;33733;52.456;13.620;2022-08-11T16:43:44;4.40;;;1.58;;
47966;SDS011;33733;52.456;13.620;2022-08-11T16:46:30;3.45;;;1.60;;
47966;SDS011;33733;52.456;13.620;2022-08-11T16:49:21;3.55;;;1.38;;
47966;SDS011;33733;52.456;13.620;2022-08-11T16:51:51;4.45;;;1.40;;
47966;SDS011;33733;52.456;13.620;2022-08-11T16:54:18;3.15;;;1.27;;
47966;SDS011;33733;52.456;13.620;2022-08-11T16:56:50;3.08;;;0.77;;
47966;SDS011;33733;52.456;13.620;2022-08-11T16:59:21;3.83;;;1.30;;
47966;SDS011;33733;52.456;13.620;2022-08-11T17:01:52;5.65;;;2.05;;
47966;SDS011;33733;52.456;13.620;2022-08-11T17:07:36;4.15;;;1.48;;
47966;SDS011;33733;52.456;13.620;2022-08-11T17:10:28;4.60;;;1.65;;
47966;SDS011;33733;52.456;13.620;2022-08-11T17:13:22;2.45;;;0.65;;
47966;SDS011;33733;52.456;13.620;2022-08-11T17:15:54;7.28;;;1.90;;
47966;SDS011;33733;52.456;13.620;2022-08-11T17:18:34;2.80;;;0.88;;
47966;SDS011;33733;52.456;13.620;2022-08-11T17:21:32;3.53;;;1.30;;
47966;SDS011;33733;52.456;13.620;2022-08-11T17:24:02;4.90;;;1.00;;
47966;SDS011;33733;52.456;13.620;2022-08-11T17:31:56;4.18;;;1.50;;
47966;SDS011;33733;52.456;13.620;2022-08-11T17:34:43;4.65;;;0.73;;
47966;SDS011;33733;52.456;13.620;2022-08-11T17:37:30;4.75;;;1.83;;
47966;SDS011;33733;52.456;13.620;2022-08-11T17:39:59;5.15;;;1.35;;
47966;SDS011;33733;52.456;13.620;2022-08-11T17:42:32;3.90;;;1.60;;
47966;SDS011;33733;52.456;13.620;2022-08-11T17:45:19;5.13;;;1.38;;
47966;SDS011;33733;52.456;13.620;2022-08-11T17:48:06;4.32;;;1.85;;
47966;SDS011;33733;52.456;13.620;2022-08-11T17:50:52;3.70;;;1.70;;
47966;SDS011;33733;52.456;13.620;2022-08-11T17:53:21;3.67;;;1.63;;
47966;SDS011;33733;52.456;13.620;2022-08-11T17:56:28;3.53;;;1.40;;
47966;SDS011;33733;52.456;13.620;2022-08-11T17:59:14;5.18;;;1.92;;
47966;SDS011;33733;52.456;13.620;2022-08-11T18:02:01;6.03;;;2.65;;
47966;SDS011;33733;52.456;13.620;2022-08-11T18:05:00;5.35;;;1.40;;
47966;SDS011;33733;52.456;13.620;2022-08-11T18:07:26;4.97;;;1.42;;
47966;SDS011;33733;52.456;13.620;2022-08-11T18:10:12;4.63;;;1.63;;
47966;SDS011;33733;52.456;13.620;2022-08-11T18:13:01;4.60;;;1.10;;
47966;SDS011;33733;52.456;13.620;2022-08-11T18:15:48;5.30;;;1.90;;
47966;SDS011;33733;52.456;13.620;2022-08-11T18:18:34;4.53;;;1.80;;
47966;SDS011;33733;52.456;13.620;2022-08-11T18:21:19;4.00;;;1.73;;
47966;SDS011;33733;52.456;13.620;2022-08-11T18:24:09;4.40;;;2.00;;
47966;SDS011;33733;52.456;13.620;2022-08-11T18:26:57;8.13;;;2.75;;
47966;SDS011;33733;52.456;13.620;2022-08-11T18:29:48;4.03;;;1.67;;
47966;SDS011;33733;52.456;13.620;2022-08-11T18:32:34;4.40;;;2.13;;
47966;SDS011;33733;52.456;13.620;2022-08-11T18:35:40;6.97;;;1.70;;
47966;SDS011;33733;52.456;13.620;2022-08-11T18:38:26;4.25;;;1.95;;
47966;SDS011;33733;52.456;13.620;2022-08-11T18:41:12;4.22;;;1.92;;
47966;SDS011;33733;52.456;13.620;2022-08-11T18:43:58;4.50;;;1.13;;
47966;SDS011;33733;52.456;13.620;2022-08-11T18:46:46;4.47;;;1.30;;
47966;SDS011;33733;52.456;13.620;2022-08-11T18:49:34;4.50;;;1.20;;
47966;SDS011;33733;52.456;13.620;2022-08-11T18:52:30;3.92;;;1.92;;
47966;SDS011;33733;52.456;13.620;2022-08-11T18:55:16;4.05;;;0.95;;
47966;SDS011;33733;52.456;13.620;2022-08-11T18:58:04;5.47;;;2.47;;
47966;SDS011;33733;52.456;13.620;2022-08-11T19:00:53;3.58;;;0.93;;
47966;SDS011;33733;52.456;13.620;2022-08-11T19:03:43;4.05;;;1.15;;
47966;SDS011;33733;52.456;13.620;2022-08-11T19:06:42;3.28;;;0.65;;
47966;SDS011;33733;52.456;13.620;2022-08-11T19:09:27;3.95;;;0.75;;
47966;SDS011;33733;52.456;13.620;2022-08-11T19:12:13;7.47;;;0.93;;
47966;SDS011;33733;52.456;13.620;2022-08-11T19:14:59;3.72;;;1.50;;
47966;SDS011;33733;52.456;13.620;2022-08-11T19:17:45;11.57;;;0.90;;
47966;SDS011;33733;52.456;13.620;2022-08-11T19:20:34;6.20;;;1.70;;
47966;SDS011;33733;52.456;13.620;2022-08-11T19:23:24;4.05;;;1.77;;
47966;SDS011;33733;52.456;13.620;2022-08-11T19:26:11;5.35;;;1.05;;
47966;SDS011;33733;52.456;13.620;2022-08-11T19:28:57;6.45;;;1.98;;
47966;SDS011;33733;52.456;13.620;2022-08-11T19:32:04;6.43;;;1.55;;
47966;SDS011;33733;52.456;13.620;2022-08-11T19:34:50;5.65;;;1.88;;
47966;SDS011;33733;52.456;13.620;2022-08-11T19:37:37;5.70;;;1.23;;
47966;SDS011;33733;52.456;13.620;2022-08-11T19:40:23;10.90;;;2.28;;
47966;SDS011;33733;52.456;13.620;2022-08-11T19:43:08;11.55;;;2.40;;
47966;SDS011;33733;52.456;13.620;2022-08-11T19:45:55;16.38;;;1.92;;